createdAt,value
2022-08-12T00:02:02.810Z,18.80
2022-08-12T00:04:57.082Z,18.90
2022-08-12T00:08:03.472Z,18.90
2022-08-12T00:11:12.454Z,18.80
2022-08-12T00:14:18.753Z,18.70
2022-08-12T00:17:25.464Z,18.70
2022-08-12T00:20:32.951Z,18.70
2022-08-12T00:23:39.281Z,18.60
2022-08-12T00:26:45.799Z,18.60
2022-08-12T00:29:52.826Z,18.60
2022-08-12T00:32:59.598Z,18.60
2022-08-12T00:36:34.762Z,18.60
2022-08-12T00:39:37.695Z,18.60
2022-08-12T00:42:25.767Z,18.60
2022-08-12T00:45:14.318Z,18.50
2022-08-12T00:48:02.517Z,18.50
2022-08-12T00:50:56.598Z,18.40
2022-08-12T00:53:46.127Z,18.40
2022-08-12T00:56:36.714Z,18.20
2022-08-12T00:59:24.900Z,18.10
2022-08-12T01:02:22.248Z,18.10
2022-08-12T01:05:31.956Z,18.00
2022-08-12T01:08:44.622Z,18.00
2022-08-12T01:11:33.208Z,17.90
2022-08-12T01:14:25.142Z,17.90
2022-08-12T01:17:13.760Z,17.80
2022-08-12T01:20:07.017Z,17.70
2022-08-12T01:23:20.805Z,17.70
2022-08-12T01:26:16.735Z,17.70
2022-08-12T01:29:07.475Z,17.70
2022-08-12T01:31:59.074Z,17.70
2022-08-12T01:34:55.981Z,17.60
2022-08-12T01:37:48.626Z,17.60
2022-08-12T01:40:40.438Z,17.50
2022-08-12T01:43:33.154Z,17.40
2022-08-12T01:46:31.029Z,17.40
2022-08-12T01:49:41.226Z,17.30
2022-08-12T01:52:45.435Z,17.20
2022-08-12T01:55:38.286Z,17.20
2022-08-12T01:58:51.353Z,17.20
2022-08-12T02:01:42.694Z,17.20
2022-08-12T02:04:57.992Z,17.10
2022-08-12T02:08:19.045Z,17.10
2022-08-12T02:11:17.315Z,17.00
2022-08-12T02:14:21.346Z,17.00
2022-08-12T02:17:55.497Z,16.90
2022-08-12T02:20:51.474Z,16.90
2022-08-12T02:24:19.584Z,16.90
2022-08-12T02:27:10.188Z,16.80
2022-08-12T02:29:58.372Z,16.70
2022-08-12T02:32:49.843Z,16.70
2022-08-12T02:35:39.791Z,16.60
2022-08-12T02:38:30.244Z,16.60
2022-08-12T02:41:22.291Z,16.60
2022-08-12T02:44:11.714Z,16.50
2022-08-12T02:47:04.131Z,16.40
2022-08-12T02:49:55.955Z,16.40
2022-08-12T02:52:44.825Z,16.30
2022-08-12T02:55:36.982Z,16.30
2022-08-12T02:58:33.327Z,16.20
2022-08-12T03:01:27.763Z,16.20
2022-08-12T03:04:24.392Z,16.20
2022-08-12T03:07:21.111Z,16.10
2022-08-12T03:10:17.863Z,16.10
2022-08-12T03:13:09.275Z,15.90
2022-08-12T03:15:58.882Z,15.90
2022-08-12T03:18:47.878Z,15.80
2022-08-12T03:22:05.670Z,15.80
2022-08-12T03:24:47.899Z,15.80
2022-08-12T03:27:40.431Z,15.70
2022-08-12T03:30:31.433Z,15.70
2022-08-12T03:33:19.940Z,15.70
2022-08-12T03:36:09.950Z,15.70
2022-08-12T03:39:35.215Z,15.70
2022-08-12T03:42:39.791Z,15.60
2022-08-12T03:45:51.997Z,15.70
2022-08-12T03:48:59.020Z,15.60
2022-08-12T03:52:05.725Z,15.60
2022-08-12T03:55:11.611Z,15.60
2022-08-12T03:58:19.922Z,15.50
2022-08-12T04:01:08.957Z,15.50
2022-08-12T04:03:58.056Z,15.40
2022-08-12T04:06:46.262Z,15.30
2022-08-12T04:09:34.869Z,15.20
2022-08-12T04:12:40.630Z,15.20
2022-08-12T04:15:32.573Z,15.10
2022-08-12T04:18:21.284Z,15.20
2022-08-12T04:21:09.983Z,15.00
2022-08-12T04:23:59.590Z,14.90
2022-08-12T04:26:48.027Z,15.00
2022-08-12T04:30:22.378Z,15.00
2022-08-12T04:32:49.874Z,15.10
2022-08-12T04:35:38.696Z,15.20
2022-08-12T04:38:28.364Z,15.20
2022-08-12T04:41:19.050Z,15.30
2022-08-12T04:44:08.065Z,15.30
2022-08-12T04:46:56.284Z,15.40
2022-08-12T04:49:49.241Z,15.50
2022-08-12T04:52:37.674Z,15.60
2022-08-12T04:55:26.217Z,15.70
2022-08-12T04:58:14.961Z,15.70
2022-08-12T05:01:03.451Z,15.70
2022-08-12T05:03:52.724Z,15.80
2022-08-12T05:06:42.669Z,15.90
2022-08-12T05:09:58.981Z,16.00
2022-08-12T05:12:43.143Z,16.10
2022-08-12T05:15:31.653Z,16.20
2022-08-12T05:18:21.893Z,16.20
2022-08-12T05:21:10.761Z,16.40
2022-08-12T05:24:00.874Z,16.50
2022-08-12T05:26:49.244Z,16.50
2022-08-12T05:30:05.235Z,16.60
2022-08-12T05:32:45.831Z,16.70
2022-08-12T05:35:36.929Z,16.80
2022-08-12T05:38:42.882Z,16.90
2022-08-12T05:41:35.262Z,17.00
2022-08-12T05:44:23.491Z,17.10
2022-08-12T05:47:12.457Z,17.20
2022-08-12T05:50:00.737Z,17.30
2022-08-12T05:52:48.971Z,17.40
2022-08-12T05:55:37.614Z,17.50
2022-08-12T05:58:27.198Z,17.60
2022-08-12T06:02:08.852Z,17.70
2022-08-12T06:04:23.601Z,17.80
2022-08-12T06:08:00.504Z,18.00
2022-08-12T06:10:32.009Z,18.10
2022-08-12T06:13:28.091Z,18.20
2022-08-12T06:16:32.724Z,18.40
2022-08-12T06:19:20.930Z,18.50
2022-08-12T06:22:09.143Z,18.60
2022-08-12T06:24:57.352Z,18.80
2022-08-12T06:28:07.840Z,18.90
2022-08-12T06:31:24.942Z,19.00
2022-08-12T06:35:25.110Z,19.20
2022-08-12T06:37:14.167Z,19.30
2022-08-12T06:40:05.317Z,19.40
2022-08-12T06:42:52.874Z,19.60
2022-08-12T06:45:46.710Z,19.70
2022-08-12T06:48:35.751Z,19.90
2022-08-12T06:51:25.821Z,20.00
2022-08-12T06:54:14.083Z,20.10
2022-08-12T06:58:01.731Z,20.20
2022-08-12T07:00:32.602Z,20.30
2022-08-12T07:03:28.625Z,20.40
2022-08-12T07:06:16.952Z,20.60
2022-08-12T07:09:07.159Z,20.70
2022-08-12T07:11:55.448Z,20.80
2022-08-12T07:14:47.014Z,20.90
2022-08-12T07:17:37.720Z,21.10
2022-08-12T07:20:51.347Z,21.10
2022-08-12T07:23:39.342Z,21.30
2022-08-12T07:26:29.375Z,21.50
2022-08-12T07:29:18.717Z,21.70
2022-08-12T07:32:07.082Z,21.80
2022-08-12T07:34:55.441Z,21.90
2022-08-12T07:37:44.194Z,22.10
2022-08-12T07:40:32.669Z,22.20
2022-08-12T07:43:22.788Z,22.30
2022-08-12T07:46:15.156Z,22.40
2022-08-12T07:49:05.934Z,22.60
2022-08-12T07:51:54.126Z,22.70
2022-08-12T07:54:42.440Z,22.80
2022-08-12T07:57:32.505Z,22.90
2022-08-12T08:00:22.733Z,23.10
2022-08-12T08:03:13.054Z,23.30
2022-08-12T08:06:01.570Z,23.40
2022-08-12T08:08:49.849Z,23.50
2022-08-12T08:11:56.011Z,23.70
2022-08-12T08:14:44.885Z,23.80
2022-08-12T08:17:37.220Z,23.90
2022-08-12T08:20:28.496Z,24.10
2022-08-12T08:23:19.612Z,24.20
2022-08-12T08:26:10.367Z,24.30
2022-08-12T08:28:59.566Z,24.40
2022-08-12T08:31:50.770Z,24.50
2022-08-12T08:34:53.677Z,24.60
2022-08-12T08:37:46.982Z,24.80
2022-08-12T08:40:59.073Z,24.90
2022-08-12T08:43:47.321Z,25.10
2022-08-12T08:46:38.007Z,25.20
2022-08-12T08:49:27.059Z,25.30
2022-08-12T08:52:39.303Z,25.40
2022-08-12T08:55:37.484Z,25.50
2022-08-12T08:58:33.691Z,25.60
2022-08-12T09:01:22.645Z,25.70
2022-08-12T09:05:09.662Z,25.70
2022-08-12T09:07:44.193Z,25.80
2022-08-12T09:14:10.793Z,26.20
2022-08-12T09:16:50.047Z,26.30
2022-08-12T09:19:38.548Z,26.40
2022-08-12T09:22:30.154Z,26.50
2022-08-12T09:25:25.578Z,26.70
2022-08-12T09:28:14.400Z,26.80
2022-08-12T09:31:04.606Z,27.00
2022-08-12T09:34:25.569Z,27.20
2022-08-12T09:37:22.308Z,27.40
2022-08-12T09:41:02.203Z,27.40
2022-08-12T09:43:53.595Z,27.50
2022-08-12T09:46:42.890Z,27.60
2022-08-12T09:49:41.990Z,27.70
2022-08-12T09:52:31.970Z,27.80
2022-08-12T09:56:06.219Z,27.80
2022-08-12T09:58:59.088Z,28.00
2022-08-12T10:02:42.274Z,28.20
2022-08-12T10:04:51.692Z,28.30
2022-08-12T10:07:40.915Z,28.20
2022-08-12T10:10:30.766Z,28.20
2022-08-12T10:13:40.340Z,28.20
2022-08-12T10:16:35.353Z,28.40
2022-08-12T10:19:36.217Z,28.60
2022-08-12T10:22:36.480Z,28.70
2022-08-12T10:26:35.749Z,28.70
2022-08-12T10:30:38.974Z,28.70
2022-08-12T10:32:43.673Z,28.40
2022-08-12T10:35:37.935Z,28.30
2022-08-12T10:38:36.337Z,28.20
2022-08-12T10:41:56.780Z,28.10
2022-08-12T10:44:47.621Z,28.10
2022-08-12T10:48:07.625Z,28.10
2022-08-12T10:51:01.980Z,28.00
2022-08-12T10:53:52.667Z,28.10
2022-08-12T10:56:48.844Z,28.10
2022-08-12T11:00:31.353Z,28.30
2022-08-12T11:04:20.810Z,28.40
2022-08-12T11:07:08.081Z,28.60
2022-08-12T11:09:11.414Z,28.90
2022-08-12T11:12:34.900Z,29.30
2022-08-12T11:15:21.209Z,29.50
2022-08-12T11:18:18.364Z,29.70
2022-08-12T11:21:07.245Z,29.90
2022-08-12T11:24:04.295Z,30.10
2022-08-12T11:26:53.085Z,30.10
2022-08-12T11:30:05.639Z,30.30
2022-08-12T11:32:51.165Z,30.40
2022-08-12T11:35:41.579Z,30.50
2022-08-12T11:38:31.235Z,30.50
2022-08-12T11:41:28.094Z,30.30
2022-08-12T11:44:36.904Z,30.20
2022-08-12T11:47:30.008Z,29.90
2022-08-12T11:50:20.278Z,29.80
2022-08-12T11:53:58.598Z,29.90
2022-08-12T11:56:16.650Z,30.20
2022-08-12T12:02:16.393Z,30.60
2022-08-12T12:05:09.646Z,30.70
2022-08-12T12:08:37.219Z,30.70
2022-08-12T12:11:09.220Z,30.70
2022-08-12T12:14:06.935Z,30.90
2022-08-12T12:16:58.813Z,31.00
2022-08-12T12:19:48.333Z,31.30
2022-08-12T12:22:38.218Z,31.50
2022-08-12T12:26:07.393Z,31.70
2022-08-12T12:28:37.692Z,31.60
2022-08-12T12:32:09.218Z,31.70
2022-08-12T12:34:35.791Z,31.80
2022-08-12T12:37:59.097Z,31.80
2022-08-12T12:40:35.687Z,31.90
2022-08-12T12:43:29.168Z,31.90
2022-08-12T12:46:31.397Z,31.90
2022-08-12T12:49:19.569Z,32.20
2022-08-12T12:52:19.400Z,32.30
2022-08-12T12:55:09.951Z,32.40
2022-08-12T12:58:01.286Z,32.50
2022-08-12T13:00:51.171Z,32.40
2022-08-12T13:03:49.060Z,32.10
2022-08-12T13:06:38.438Z,31.80
2022-08-12T13:09:26.947Z,31.50
2022-08-12T13:12:24.772Z,31.70
2022-08-12T13:15:43.468Z,32.00
2022-08-12T13:18:28.638Z,32.40
2022-08-12T13:21:33.064Z,32.60
2022-08-12T13:24:24.744Z,32.70
2022-08-12T13:27:20.917Z,32.80
2022-08-12T13:30:12.465Z,33.00
2022-08-12T13:33:02.232Z,33.00
2022-08-12T13:36:06.320Z,33.20
2022-08-12T13:38:56.021Z,33.30
2022-08-12T13:41:44.712Z,33.40
2022-08-12T13:44:32.888Z,33.60
2022-08-12T13:47:22.593Z,33.60
2022-08-12T13:50:13.234Z,34.00
2022-08-12T13:53:06.292Z,34.00
2022-08-12T13:56:11.870Z,33.60
2022-08-12T13:59:01.387Z,33.20
2022-08-12T14:01:51.854Z,32.70
2022-08-12T14:04:44.841Z,32.40
2022-08-12T14:08:01.668Z,32.00
2022-08-12T14:10:53.325Z,31.70
2022-08-12T14:14:03.427Z,31.40
2022-08-12T14:16:51.297Z,31.20
2022-08-12T14:20:01.078Z,31.60
2022-08-12T14:22:51.783Z,31.90
2022-08-12T14:25:43.434Z,31.70
2022-08-12T14:28:35.148Z,32.20
2022-08-12T14:31:29.244Z,33.00
2022-08-12T14:34:20.574Z,33.90
2022-08-12T14:37:55.900Z,34.60
2022-08-12T14:40:27.774Z,35.00
2022-08-12T14:43:17.962Z,35.20
2022-08-12T14:46:06.683Z,34.60
2022-08-12T14:48:56.744Z,34.00
2022-08-12T14:52:43.926Z,33.60
2022-08-12T14:58:02.554Z,32.50
2022-08-12T15:01:09.831Z,32.10
2022-08-12T15:04:00.619Z,31.80
2022-08-12T15:06:52.696Z,31.70
2022-08-12T15:09:41.345Z,31.90
2022-08-12T15:12:30.272Z,31.70
2022-08-12T15:15:20.466Z,31.60
2022-08-12T15:18:12.010Z,31.40
2022-08-12T15:21:05.493Z,31.30
2022-08-12T15:24:00.401Z,31.90
2022-08-12T15:26:48.631Z,32.10
2022-08-12T15:29:38.631Z,32.60
2022-08-12T15:32:32.082Z,33.60
2022-08-12T15:35:22.419Z,34.20
2022-08-12T15:38:14.774Z,34.50
2022-08-12T15:41:06.849Z,34.70
2022-08-12T15:44:36.672Z,34.90
2022-08-12T15:47:04.794Z,34.30
2022-08-12T15:49:59.962Z,34.10
2022-08-12T15:52:50.437Z,34.40
2022-08-12T15:55:45.649Z,34.80
2022-08-12T15:58:35.876Z,35.20
2022-08-12T16:01:24.559Z,35.00
2022-08-12T16:04:13.072Z,35.10
2022-08-12T16:07:05.843Z,35.20
2022-08-12T16:10:08.265Z,34.10
2022-08-12T16:12:58.959Z,33.20
2022-08-12T16:16:01.683Z,32.30
2022-08-12T16:18:51.434Z,31.70
2022-08-12T16:21:52.946Z,31.60
2022-08-12T16:24:47.127Z,32.40
2022-08-12T16:27:42.691Z,33.30
2022-08-12T16:30:34.203Z,34.20
2022-08-12T16:33:22.693Z,34.90
2022-08-12T16:36:18.696Z,35.30
2022-08-12T16:39:07.267Z,35.70
2022-08-12T16:41:57.095Z,36.20
2022-08-12T16:44:49.601Z,36.40
2022-08-12T16:47:58.775Z,36.50
2022-08-12T16:50:49.943Z,36.80
2022-08-12T16:53:44.074Z,37.10
2022-08-12T16:56:35.536Z,37.10
2022-08-12T16:59:53.387Z,37.20
2022-08-12T17:02:40.547Z,37.00
2022-08-12T17:05:31.182Z,37.20
2022-08-12T17:08:21.563Z,37.10
2022-08-12T17:11:18.115Z,37.10
2022-08-12T17:14:07.735Z,37.00
2022-08-12T17:16:57.153Z,37.00
2022-08-12T17:20:34.799Z,36.70
2022-08-12T17:22:56.481Z,36.60
2022-08-12T17:25:48.923Z,36.50
2022-08-12T17:28:39.015Z,36.20
2022-08-12T17:32:00.932Z,36.10
2022-08-12T17:34:57.985Z,35.90
2022-08-12T17:37:50.818Z,35.10
2022-08-12T17:40:46.476Z,34.20
2022-08-12T17:43:57.312Z,33.80
2022-08-12T17:46:44.909Z,33.80
2022-08-12T17:50:03.019Z,33.60
2022-08-12T17:52:59.178Z,33.30
2022-08-12T17:55:52.741Z,32.70
2022-08-12T17:58:42.781Z,32.00
2022-08-12T18:01:43.107Z,31.60
2022-08-12T18:04:35.642Z,31.10
2022-08-12T18:07:24.328Z,30.70
2022-08-12T18:10:42.684Z,30.40
2022-08-12T18:13:37.801Z,30.10
2022-08-12T18:16:32.093Z,29.80
2022-08-12T18:19:21.263Z,29.50
2022-08-12T18:22:09.460Z,29.20
2022-08-12T18:25:02.364Z,29.00
2022-08-12T18:28:12.327Z,28.80
2022-08-12T18:31:04.507Z,28.60
2022-08-12T18:33:53.363Z,28.50
2022-08-12T18:36:47.186Z,28.30
2022-08-12T18:39:57.503Z,28.10
2022-08-12T18:42:54.054Z,28.00
2022-08-12T18:45:57.051Z,27.80
2022-08-12T18:48:46.381Z,27.60
2022-08-12T18:51:48.773Z,27.50
2022-08-12T18:54:49.528Z,27.30
2022-08-12T18:58:06.825Z,27.20
2022-08-12T19:00:54.513Z,27.10
2022-08-12T19:03:42.721Z,27.00
2022-08-12T19:06:36.439Z,26.80
2022-08-12T19:09:39.044Z,26.70
2022-08-12T19:13:03.393Z,26.60
2022-08-12T19:16:01.619Z,26.50
2022-08-12T19:18:50.404Z,26.30
2022-08-12T19:21:40.958Z,26.20
2022-08-12T19:25:03.161Z,26.10
2022-08-12T19:27:55.536Z,25.90
2022-08-12T19:31:03.512Z,25.80
2022-08-12T19:34:25.625Z,25.70
2022-08-12T19:37:06.116Z,25.60
2022-08-12T19:40:09.790Z,25.50
2022-08-12T19:43:19.189Z,25.40
2022-08-12T19:46:09.259Z,25.30
2022-08-12T19:49:03.079Z,25.20
2022-08-12T19:51:52.605Z,25.10
2022-08-12T19:54:44.037Z,25.10
2022-08-12T19:58:02.289Z,24.90
2022-08-12T20:00:54.395Z,24.80
2022-08-12T20:03:47.858Z,24.70
2022-08-12T20:06:51.595Z,24.60
2022-08-12T20:09:43.060Z,24.50
2022-08-12T20:12:44.691Z,24.30
2022-08-12T20:15:45.096Z,24.10
2022-08-12T20:18:53.474Z,24.00
2022-08-12T20:21:42.606Z,23.80
2022-08-12T20:24:36.970Z,23.60
2022-08-12T20:27:29.518Z,23.60
2022-08-12T20:30:52.954Z,23.40
2022-08-12T20:33:56.503Z,23.30
2022-08-12T20:36:45.315Z,23.20
2022-08-12T20:39:53.505Z,23.00
2022-08-12T20:42:43.250Z,22.90
2022-08-12T20:45:40.026Z,22.80
2022-08-12T20:48:43.417Z,22.70
2022-08-12T20:51:54.613Z,22.70
2022-08-12T20:54:50.227Z,22.50
2022-08-12T20:58:02.804Z,22.50
2022-08-12T21:00:46.693Z,22.40
2022-08-12T21:03:52.583Z,22.30
2022-08-12T21:07:04.472Z,22.20
2022-08-12T21:09:59.615Z,22.10
2022-08-12T21:12:47.816Z,22.00
2022-08-12T21:15:54.964Z,21.90
2022-08-12T21:18:50.742Z,21.80
2022-08-12T21:21:46.824Z,21.80
2022-08-12T21:24:46.412Z,21.70
2022-08-12T21:27:57.976Z,21.60
2022-08-12T21:31:10.963Z,21.50
2022-08-12T21:34:07.687Z,21.50
2022-08-12T21:36:59.980Z,21.30
2022-08-12T21:39:52.253Z,21.30
2022-08-12T21:42:42.253Z,21.30
2022-08-12T21:45:48.179Z,21.20
2022-08-12T21:48:39.946Z,21.10
2022-08-12T21:51:49.783Z,21.10
2022-08-12T21:54:40.652Z,21.10
2022-08-12T21:57:36.524Z,21.10
2022-08-12T22:00:40.931Z,21.00
2022-08-12T22:04:04.112Z,21.00
2022-08-12T22:06:55.495Z,20.90
2022-08-12T22:09:47.537Z,20.90
2022-08-12T22:12:45.943Z,20.80
2022-08-12T22:15:34.311Z,20.80
2022-08-12T22:18:24.818Z,20.80
2022-08-12T22:21:17.474Z,20.70
2022-08-12T22:24:09.598Z,20.70
2022-08-12T22:27:31.736Z,20.70
2022-08-12T22:30:38.759Z,20.60
2022-08-12T22:33:28.633Z,20.60
2022-08-12T22:36:21.341Z,20.60
2022-08-12T22:39:15.719Z,20.50
2022-08-12T22:42:21.840Z,20.50
2022-08-12T22:45:30.038Z,20.40
2022-08-12T22:48:26.651Z,20.40
2022-08-12T22:51:19.234Z,20.40
2022-08-12T22:54:35.155Z,20.30
2022-08-12T22:57:17.722Z,20.30
2022-08-12T23:00:27.044Z,20.20
2022-08-12T23:03:48.031Z,20.20
2022-08-12T23:06:27.007Z,20.10
2022-08-12T23:09:16.409Z,20.00
2022-08-12T23:12:05.384Z,20.10
2022-08-12T23:14:52.761Z,20.00
2022-08-12T23:17:41.801Z,19.90
2022-08-12T23:20:31.897Z,19.90
2022-08-12T23:23:21.445Z,19.90
2022-08-12T23:26:09.705Z,19.80
2022-08-12T23:29:29.966Z,19.80
2022-08-12T23:32:35.892Z,19.70
2022-08-12T23:35:24.913Z,19.70
2022-08-12T23:38:35.464Z,19.70
2022-08-12T23:41:25.080Z,19.70
2022-08-12T23:44:19.767Z,19.70
2022-08-12T23:47:09.889Z,19.60
2022-08-12T23:50:00.643Z,19.60
2022-08-12T23:52:51.735Z,19.50
2022-08-12T23:55:42.176Z,19.50
2022-08-12T23:58:32.879Z,19.50
